Yuzanmaru — JD2427 — position and weather

sailwx.info

Track history (hours):
 
Tides and Currents Weather Stations Pressure Air Temp Water Temp Dewpoint Dewpoint Depression Visibility Wind Speed Wind Dir Waves Ship Positions

Yuzanmaru

Last reported at 2018-May-25 14:30 UTC. Time now 2018-May-25 14:52 UTC.
Position N 34°09' E 135°02'.

Length 74 m; draft 5.2 m.

Type: Cargo ship. MMSI: 431000189.

Date/timePositionNaut miles runAvg speedWind from/ knotsBaromVisibWave heightAir tempDewpointWater temp
2018-May-25 14:30N 34°09' E 135°02'611.2
2018-May-25 14:00N 34°04' E 134°60'611.1
2018-May-25 13:28N 33°59' E 134°56'0 0.0
2018-May-24 14:32N 33°59' E 134°56'512.4
2018-May-24 14:09N 34°03' E 134°59'212.5
2018-May-24 13:57N 34°05' E 134°60'612.6
2018-May-24 13:30N 34°10' E 135°03'5 1.1
2018-May-24 08:59N 34°14' E 135°08'0 0.0
2018-May-24 08:30N 34°14' E 135°08'0 0.0
2018-May-24 08:00N 34°14' E 135°08'0 0.0
2018-May-24 07:30N 34°14' E 135°08'0 0.0
2018-May-24 07:00N 34°14' E 135°08'0 0.0
2018-May-24 06:28N 34°14' E 135°08'0 0.0
2018-May-24 05:50N 34°14' E 135°08'0 0.0
2018-May-24 05:30N 34°14' E 135°08'0 0.0
2018-May-24 05:00N 34°14' E 135°08'0 0.0
2018-May-24 04:28N 34°14' E 135°08'0 0.0
2018-May-24 03:58N 34°14' E 135°08'0 0.0
2018-May-24 03:30N 34°14' E 135°08'0 0.0
2018-May-24 03:00N 34°14' E 135°08'0 0.0
2018-May-24 02:30N 34°14' E 135°08'0 0.0
2018-May-24 01:59N 34°14' E 135°08'0 0.0
2018-May-24 01:29N 34°14' E 135°08'0 0.0
2018-May-24 01:00N 34°14' E 135°08'2 3.4
2018-May-24 00:30N 34°14' E 135°06'510.4
2018-May-24 00:00N 34°10' E 135°03'610.8
2018-May-23 23:28N 34°05' E 134°60'510.4
2018-May-23 22:59N 34°00' E 134°57'3 0.1
2018-May-22 15:46N 33°58' E 134°55'311.1
2018-May-22 15:30N 34°01' E 134°56'611.1
2018-May-22 14:59N 34°06' E 134°59'511.2
2018-May-22 14:30N 34°10' E 135°03'5 9.7
2018-May-22 14:00N 34°14' E 135°07'1 2.1
2018-May-22 13:30N 34°14' E 135°08'0 0.0
2018-May-22 13:00N 34°14' E 135°08'0 0.0
2018-May-22 12:30N 34°14' E 135°08'0 0.0
2018-May-22 12:01N 34°14' E 135°08'0 0.0
2018-May-22 11:30N 34°14' E 135°08'0 0.0
2018-May-22 11:00N 34°14' E 135°08'0 0.0
2018-May-22 10:30N 34°14' E 135°08'0 0.0
2018-May-22 10:00N 34°14' E 135°08'0 0.0
2018-May-22 09:30N 34°14' E 135°08'0 0.0
2018-May-22 08:59N 34°14' E 135°08'0 0.0
2018-May-22 08:30N 34°14' E 135°08'0 0.0
2018-May-22 08:00N 34°14' E 135°08'0 0.0
2018-May-22 07:30N 34°14' E 135°08'0 0.0
2018-May-22 07:00N 34°14' E 135°08'0 0.0
2018-May-22 06:30N 34°14' E 135°08'0 0.0
2018-May-22 06:00N 34°14' E 135°08'0 0.0
2018-May-22 05:30N 34°14' E 135°08'0 0.0
2018-May-22 05:00N 34°14' E 135°08'0 0.0
2018-May-22 04:30N 34°14' E 135°08'0 0.0
2018-May-22 03:58N 34°14' E 135°08'0 0.0
2018-May-22 03:30N 34°14' E 135°08'0 0.0
2018-May-22 02:59N 34°14' E 135°08'0 0.0
2018-May-22 02:27N 34°14' E 135°08'0 0.0
2018-May-22 02:00N 34°14' E 135°08'0 0.0
2018-May-22 01:30N 34°14' E 135°08'0 0.0
2018-May-22 01:00N 34°14' E 135°08'0 0.0
2018-May-22 00:26N 34°14' E 135°08'0 0.1
2018-May-22 00:00N 34°14' E 135°08'0 0.1
2018-May-21 23:30N 34°14' E 135°08'0 0.0
2018-May-21 23:00N 34°14' E 135°08'0 0.0
2018-May-21 22:29N 34°14' E 135°08'0 0.0
2018-May-21 22:00N 34°14' E 135°08'0 0.0
2018-May-21 21:30N 34°14' E 135°08'0 0.0
2018-May-21 21:00N 34°14' E 135°08'0 0.0
2018-May-21 20:30N 34°14' E 135°08'0 0.0
2018-May-21 20:00N 34°14' E 135°08'0 0.0
2018-May-21 19:30N 34°14' E 135°08'0 0.0
2018-May-21 19:00N 34°14' E 135°08'0 0.0
2018-May-21 18:30N 34°14' E 135°08'0 0.0
2018-May-21 18:00N 34°14' E 135°08'0 0.0
2018-May-21 17:30N 34°14' E 135°08'0 0.0
2018-May-21 16:59N 34°14' E 135°08'0 0.0
2018-May-21 16:30N 34°14' E 135°08'0 0.0
2018-May-21 16:01N 34°14' E 135°08'0 0.0
2018-May-21 15:26N 34°14' E 135°08'0 0.0
2018-May-21 14:59N 34°14' E 135°08'0 0.0
2018-May-21 14:30N 34°14' E 135°08'1 2.8
2018-May-21 14:00N 34°14' E 135°06'3 5.5
2018-May-21 13:30N 34°13' E 135°04'510.1
2018-May-21 13:00N 34°08' E 135°02'611.5
2018-May-21 12:29N 34°02' E 134°58'611.6
2018-May-21 11:59N 33°57' E 134°55'1 0.0
2018-May-19 15:50N 33°58' E 134°56'711.8
2018-May-19 15:15N 34°04' E 134°59'512.0
2018-May-19 14:51N 34°08' E 135°01'412.1
2018-May-19 14:31N 34°12' E 135°04'4 7.3
2018-May-19 14:00N 34°14' E 135°08'0 0.3
2018-May-19 13:30N 34°14' E 135°08'0 0.0
2018-May-19 13:00N 34°14' E 135°08'0 0.0
2018-May-19 12:30N 34°14' E 135°08'0 0.0
2018-May-19 12:00N 34°14' E 135°08'0 0.0
2018-May-19 11:30N 34°14' E 135°08'0 0.0
2018-May-19 10:59N 34°14' E 135°08'0 0.0
2018-May-19 10:29N 34°14' E 135°08'0 0.0
2018-May-19 10:00N 34°14' E 135°08'0 0.0
2018-May-19 09:30N 34°14' E 135°08'0 0.0
2018-May-19 09:00N 34°14' E 135°08'0 0.0
2018-May-19 08:30N 34°14' E 135°08'0 0.0
2018-May-19 08:00N 34°14' E 135°08'0 0.0
2018-May-19 07:31N 34°14' E 135°08'0 0.0
2018-May-19 07:00N 34°14' E 135°08'0 0.0
2018-May-19 06:30N 34°14' E 135°08'0 0.0
2018-May-19 06:00N 34°14' E 135°08'0 0.0
2018-May-19 05:30N 34°14' E 135°08'0 0.0
2018-May-19 05:00N 34°14' E 135°08'0 0.0
2018-May-19 04:29N 34°14' E 135°08'0 0.0
2018-May-19 04:00N 34°14' E 135°08'0 0.0
2018-May-19 03:30N 34°14' E 135°08'0 0.0
2018-May-19 03:00N 34°14' E 135°08'0 0.0
2018-May-19 02:31N 34°14' E 135°08'0 0.0
2018-May-19 02:00N 34°14' E 135°08'0 0.0
2018-May-19 01:30N 34°14' E 135°08'0 0.0
2018-May-19 01:00N 34°14' E 135°08'0 0.0
2018-May-19 00:30N 34°14' E 135°08'0 0.1
2018-May-19 00:00N 34°14' E 135°08'0 0.1
2018-May-18 23:30N 34°14' E 135°08'0 0.0
2018-May-18 23:00N 34°14' E 135°08'0 0.0
2018-May-18 22:30N 34°14' E 135°08'0 0.0
2018-May-18 22:00N 34°14' E 135°08'0 0.0
2018-May-18 21:30N 34°14' E 135°08'0 0.0
2018-May-18 21:00N 34°14' E 135°08'0 0.0
2018-May-18 20:30N 34°14' E 135°08'0 0.0
2018-May-18 20:00N 34°14' E 135°08'0 0.0
2018-May-18 19:31N 34°14' E 135°08'0 0.0
2018-May-18 18:59N 34°14' E 135°08'0 0.0
2018-May-18 18:30N 34°14' E 135°08'0 0.0
2018-May-18 18:00N 34°14' E 135°08'0 0.0
2018-May-18 17:30N 34°14' E 135°08'0 0.0
2018-May-18 17:00N 34°14' E 135°08'0 0.0
2018-May-18 16:30N 34°14' E 135°08'0 0.0
2018-May-18 16:00N 34°14' E 135°08'0 0.0
2018-May-18 15:30N 34°14' E 135°08'0 0.0
2018-May-18 15:01N 34°14' E 135°08'0 0.0
2018-May-18 14:30N 34°14' E 135°08'0 0.0
2018-May-18 14:01N 34°14' E 135°08'0 0.0
2018-May-18 13:30N 34°14' E 135°08'0 0.0
2018-May-18 13:00N 34°14' E 135°08'0 0.0
2018-May-18 12:30N 34°14' E 135°08'0 0.0
2018-May-18 12:00N 34°14' E 135°08'0 0.0
2018-May-18 11:30N 34°14' E 135°08'0 0.0
2018-May-18 11:00N 34°14' E 135°08'0 0.0
2018-May-18 10:30N 34°14' E 135°08'0 0.0
2018-May-18 09:59N 34°14' E 135°08'0 0.0
2018-May-18 09:30N 34°14' E 135°08'0 0.5
2018-May-18 09:00N 34°14' E 135°08'2 3.8
2018-May-18 08:30N 34°15' E 135°06'0 0.0
2018-May-18 08:00N 34°15' E 135°06'0 0.0
2018-May-18 07:30N 34°15' E 135°06'0 0.0
2018-May-18 07:00N 34°15' E 135°06'0 0.0
2018-May-18 06:30N 34°15' E 135°06'0 0.1
2018-May-18 06:01N 34°15' E 135°06'0 0.1
2018-May-18 05:31N 34°15' E 135°06'0 0.0
2018-May-18 05:00N 34°15' E 135°06'0 0.0
2018-May-18 04:30N 34°15' E 135°06'0 0.0
2018-May-18 04:00N 34°15' E 135°06'0 0.1
2018-May-18 03:31N 34°15' E 135°06'0 0.0
2018-May-18 03:00N 34°15' E 135°06'0 0.1
2018-May-18 02:30N 34°15' E 135°06'0 0.0
2018-May-18 02:00N 34°15' E 135°06'0 0.0
2018-May-18 01:30N 34°15' E 135°06'0 0.0
2018-May-18 01:00N 34°15' E 135°06'0 0.0
2018-May-18 00:30N 34°15' E 135°06'0 0.0
2018-May-18 00:00N 34°15' E 135°06'0 0.0
2018-May-17 23:30N 34°15' E 135°06'0 0.0
2018-May-17 23:00N 34°15' E 135°06'0 0.0
2018-May-17 22:30N 34°15' E 135°06'0 0.0
2018-May-17 22:00N 34°15' E 135°06'0 0.0
2018-May-17 21:30N 34°15' E 135°06'0 0.0
2018-May-17 21:00N 34°15' E 135°06'0 0.0
2018-May-17 20:30N 34°15' E 135°06'0 0.1
2018-May-17 20:00N 34°15' E 135°06'0 0.0
2018-May-17 19:30N 34°15' E 135°06'0 0.0
2018-May-17 19:00N 34°15' E 135°06'0 0.0
2018-May-17 18:30N 34°15' E 135°06'0 0.0
2018-May-17 18:01N 34°15' E 135°06'0 0.0
2018-May-17 17:31N 34°15' E 135°06'0 0.0
2018-May-17 17:00N 34°15' E 135°06'0 0.0
2018-May-17 16:30N 34°15' E 135°06'0 0.0
2018-May-17 16:00N 34°15' E 135°06'0 0.0
2018-May-17 15:30N 34°15' E 135°06'0 0.0
2018-May-17 15:00N 34°15' E 135°06'0 0.0
2018-May-17 14:30N 34°15' E 135°06'0 0.0
2018-May-17 14:00N 34°15' E 135°06'0 0.0
2018-May-17 13:30N 34°15' E 135°06'0 0.0
2018-May-17 13:00N 34°15' E 135°06'0 0.0
2018-May-17 12:30N 34°15' E 135°06'1 1.3
2018-May-17 12:00N 34°14' E 135°05'612.0
2018-May-17 11:30N 34°09' E 135°02'612.5
2018-May-17 10:59N 34°03' E 134°59'6 0.3
2018-May-16 11:35N 33°58' E 134°55'211.5
2018-May-16 11:27N 33°59' E 134°56'511.2
2018-May-16 10:58N 34°04' E 134°59'511.2
2018-May-16 10:30N 34°09' E 135°02'510.8
2018-May-16 10:00N 34°13' E 135°05'3 5.5
2018-May-16 09:31N 34°14' E 135°08'0 0.0
2018-May-16 09:01N 34°14' E 135°08'0 0.0
2018-May-16 08:31N 34°14' E 135°08'0 0.0
2018-May-16 08:00N 34°14' E 135°08'0 0.0
2018-May-16 07:30N 34°14' E 135°08'0 0.0
2018-May-16 07:00N 34°14' E 135°08'0 0.0
2018-May-16 06:30N 34°14' E 135°08'0 0.0
2018-May-16 06:00N 34°14' E 135°08'0 0.0
2018-May-16 05:30N 34°14' E 135°08'0 0.0
2018-May-16 05:00N 34°14' E 135°08'0 0.0
2018-May-16 04:30N 34°14' E 135°08'0 0.0
2018-May-16 04:00N 34°14' E 135°08'0 0.0
2018-May-16 03:30N 34°14' E 135°08'0 0.0
2018-May-16 03:00N 34°14' E 135°08'0 0.0
2018-May-16 02:30N 34°14' E 135°08'0 0.0
2018-May-16 02:00N 34°14' E 135°08'0 0.0
2018-May-16 01:30N 34°14' E 135°08'0 0.0
2018-May-16 01:00N 34°14' E 135°08'0 0.0
2018-May-16 00:30N 34°14' E 135°08'0 0.0
2018-May-16 00:00N 34°14' E 135°08'2 4.3
2018-May-15 23:30N 34°14' E 135°05'611.7
2018-May-15 23:00N 34°09' E 135°02'711.8
2018-May-15 22:23N 34°02' E 134°58'  
Track history (hours):
 
Tides and Currents Weather Stations Pressure Air Temp Water Temp Dewpoint Dewpoint Depression Visibility Wind Speed Wind Dir Waves Ship Positions

Yuzanmaru

Last reported at 2018-May-25 14:30 UTC. Time now 2018-May-25 14:52 UTC.
Position N 34°09' E 135°02'.

Length 74 m; draft 5.2 m.

Type: Cargo ship. MMSI: 431000189.

Date/timePositionNaut miles runAvg speedWind from/ knotsBaromVisibWave heightAir tempDewpointWater temp
2018-May-25 14:30N 34°09' E 135°02'611.2
2018-May-25 14:00N 34°04' E 134°60'611.1
2018-May-25 13:28N 33°59' E 134°56'0 0.0
2018-May-24 14:32N 33°59' E 134°56'512.4
2018-May-24 14:09N 34°03' E 134°59'212.5
2018-May-24 13:57N 34°05' E 134°60'612.6
2018-May-24 13:30N 34°10' E 135°03'5 1.1
2018-May-24 08:59N 34°14' E 135°08'0 0.0
2018-May-24 08:30N 34°14' E 135°08'0 0.0
2018-May-24 08:00N 34°14' E 135°08'0 0.0
2018-May-24 07:30N 34°14' E 135°08'0 0.0
2018-May-24 07:00N 34°14' E 135°08'0 0.0
2018-May-24 06:28N 34°14' E 135°08'0 0.0
2018-May-24 05:50N 34°14' E 135°08'0 0.0
2018-May-24 05:30N 34°14' E 135°08'0 0.0
2018-May-24 05:00N 34°14' E 135°08'0 0.0
2018-May-24 04:28N 34°14' E 135°08'0 0.0
2018-May-24 03:58N 34°14' E 135°08'0 0.0
2018-May-24 03:30N 34°14' E 135°08'0 0.0
2018-May-24 03:00N 34°14' E 135°08'0 0.0
2018-May-24 02:30N 34°14' E 135°08'0 0.0
2018-May-24 01:59N 34°14' E 135°08'0 0.0
2018-May-24 01:29N 34°14' E 135°08'0 0.0
2018-May-24 01:00N 34°14' E 135°08'2 3.4
2018-May-24 00:30N 34°14' E 135°06'510.4
2018-May-24 00:00N 34°10' E 135°03'610.8
2018-May-23 23:28N 34°05' E 134°60'510.4
2018-May-23 22:59N 34°00' E 134°57'3 0.1
2018-May-22 15:46N 33°58' E 134°55'311.1
2018-May-22 15:30N 34°01' E 134°56'611.1
2018-May-22 14:59N 34°06' E 134°59'511.2
2018-May-22 14:30N 34°10' E 135°03'5 9.7
2018-May-22 14:00N 34°14' E 135°07'1 2.1
2018-May-22 13:30N 34°14' E 135°08'0 0.0
2018-May-22 13:00N 34°14' E 135°08'0 0.0
2018-May-22 12:30N 34°14' E 135°08'0 0.0
2018-May-22 12:01N 34°14' E 135°08'0 0.0
2018-May-22 11:30N 34°14' E 135°08'0 0.0
2018-May-22 11:00N 34°14' E 135°08'0 0.0
2018-May-22 10:30N 34°14' E 135°08'0 0.0
2018-May-22 10:00N 34°14' E 135°08'0 0.0
2018-May-22 09:30N 34°14' E 135°08'0 0.0
2018-May-22 08:59N 34°14' E 135°08'0 0.0
2018-May-22 08:30N 34°14' E 135°08'0 0.0
2018-May-22 08:00N 34°14' E 135°08'0 0.0
2018-May-22 07:30N 34°14' E 135°08'0 0.0
2018-May-22 07:00N 34°14' E 135°08'0 0.0
2018-May-22 06:30N 34°14' E 135°08'0 0.0
2018-May-22 06:00N 34°14' E 135°08'0 0.0
2018-May-22 05:30N 34°14' E 135°08'0 0.0
2018-May-22 05:00N 34°14' E 135°08'0 0.0
2018-May-22 04:30N 34°14' E 135°08'0 0.0
2018-May-22 03:58N 34°14' E 135°08'0 0.0
2018-May-22 03:30N 34°14' E 135°08'0 0.0
2018-May-22 02:59N 34°14' E 135°08'0 0.0
2018-May-22 02:27N 34°14' E 135°08'0 0.0
2018-May-22 02:00N 34°14' E 135°08'0 0.0
2018-May-22 01:30N 34°14' E 135°08'0 0.0
2018-May-22 01:00N 34°14' E 135°08'0 0.0
2018-May-22 00:26N 34°14' E 135°08'0 0.1
2018-May-22 00:00N 34°14' E 135°08'0 0.1
2018-May-21 23:30N 34°14' E 135°08'0 0.0
2018-May-21 23:00N 34°14' E 135°08'0 0.0
2018-May-21 22:29N 34°14' E 135°08'0 0.0
2018-May-21 22:00N 34°14' E 135°08'0 0.0
2018-May-21 21:30N 34°14' E 135°08'0 0.0
2018-May-21 21:00N 34°14' E 135°08'0 0.0
2018-May-21 20:30N 34°14' E 135°08'0 0.0
2018-May-21 20:00N 34°14' E 135°08'0 0.0
2018-May-21 19:30N 34°14' E 135°08'0 0.0
2018-May-21 19:00N 34°14' E 135°08'0 0.0
2018-May-21 18:30N 34°14' E 135°08'0 0.0
2018-May-21 18:00N 34°14' E 135°08'0 0.0
2018-May-21 17:30N 34°14' E 135°08'0 0.0
2018-May-21 16:59N 34°14' E 135°08'0 0.0
2018-May-21 16:30N 34°14' E 135°08'0 0.0
2018-May-21 16:01N 34°14' E 135°08'0 0.0
2018-May-21 15:26N 34°14' E 135°08'0 0.0
2018-May-21 14:59N 34°14' E 135°08'0 0.0
2018-May-21 14:30N 34°14' E 135°08'1 2.8
2018-May-21 14:00N 34°14' E 135°06'3 5.5
2018-May-21 13:30N 34°13' E 135°04'510.1
2018-May-21 13:00N 34°08' E 135°02'611.5
2018-May-21 12:29N 34°02' E 134°58'611.6
2018-May-21 11:59N 33°57' E 134°55'1 0.0
2018-May-19 15:50N 33°58' E 134°56'711.8
2018-May-19 15:15N 34°04' E 134°59'512.0
2018-May-19 14:51N 34°08' E 135°01'412.1
2018-May-19 14:31N 34°12' E 135°04'4 7.3
2018-May-19 14:00N 34°14' E 135°08'0 0.3
2018-May-19 13:30N 34°14' E 135°08'0 0.0
2018-May-19 13:00N 34°14' E 135°08'0 0.0
2018-May-19 12:30N 34°14' E 135°08'0 0.0
2018-May-19 12:00N 34°14' E 135°08'0 0.0
2018-May-19 11:30N 34°14' E 135°08'0 0.0
2018-May-19 10:59N 34°14' E 135°08'0 0.0
2018-May-19 10:29N 34°14' E 135°08'0 0.0
2018-May-19 10:00N 34°14' E 135°08'0 0.0
2018-May-19 09:30N 34°14' E 135°08'0 0.0
2018-May-19 09:00N 34°14' E 135°08'0 0.0
2018-May-19 08:30N 34°14' E 135°08'0 0.0
2018-May-19 08:00N 34°14' E 135°08'0 0.0
2018-May-19 07:31N 34°14' E 135°08'0 0.0
2018-May-19 07:00N 34°14' E 135°08'0 0.0
2018-May-19 06:30N 34°14' E 135°08'0 0.0
2018-May-19 06:00N 34°14' E 135°08'0 0.0
2018-May-19 05:30N 34°14' E 135°08'0 0.0
2018-May-19 05:00N 34°14' E 135°08'0 0.0
2018-May-19 04:29N 34°14' E 135°08'0 0.0
2018-May-19 04:00N 34°14' E 135°08'0 0.0
2018-May-19 03:30N 34°14' E 135°08'0 0.0
2018-May-19 03:00N 34°14' E 135°08'0 0.0
2018-May-19 02:31N 34°14' E 135°08'0 0.0
2018-May-19 02:00N 34°14' E 135°08'0 0.0
2018-May-19 01:30N 34°14' E 135°08'0 0.0
2018-May-19 01:00N 34°14' E 135°08'0 0.0
2018-May-19 00:30N 34°14' E 135°08'0 0.1
2018-May-19 00:00N 34°14' E 135°08'0 0.1
2018-May-18 23:30N 34°14' E 135°08'0 0.0
2018-May-18 23:00N 34°14' E 135°08'0 0.0
2018-May-18 22:30N 34°14' E 135°08'0 0.0
2018-May-18 22:00N 34°14' E 135°08'0 0.0
2018-May-18 21:30N 34°14' E 135°08'0 0.0
2018-May-18 21:00N 34°14' E 135°08'0 0.0
2018-May-18 20:30N 34°14' E 135°08'0 0.0
2018-May-18 20:00N 34°14' E 135°08'0 0.0
2018-May-18 19:31N 34°14' E 135°08'0 0.0
2018-May-18 18:59N 34°14' E 135°08'0 0.0
2018-May-18 18:30N 34°14' E 135°08'0 0.0
2018-May-18 18:00N 34°14' E 135°08'0 0.0
2018-May-18 17:30N 34°14' E 135°08'0 0.0
2018-May-18 17:00N 34°14' E 135°08'0 0.0
2018-May-18 16:30N 34°14' E 135°08'0 0.0
2018-May-18 16:00N 34°14' E 135°08'0 0.0
2018-May-18 15:30N 34°14' E 135°08'0 0.0
2018-May-18 15:01N 34°14' E 135°08'0 0.0
2018-May-18 14:30N 34°14' E 135°08'0 0.0
2018-May-18 14:01N 34°14' E 135°08'0 0.0
2018-May-18 13:30N 34°14' E 135°08'0 0.0
2018-May-18 13:00N 34°14' E 135°08'0 0.0
2018-May-18 12:30N 34°14' E 135°08'0 0.0
2018-May-18 12:00N 34°14' E 135°08'0 0.0
2018-May-18 11:30N 34°14' E 135°08'0 0.0
2018-May-18 11:00N 34°14' E 135°08'0 0.0
2018-May-18 10:30N 34°14' E 135°08'0 0.0
2018-May-18 09:59N 34°14' E 135°08'0 0.0
2018-May-18 09:30N 34°14' E 135°08'0 0.5
2018-May-18 09:00N 34°14' E 135°08'2 3.8
2018-May-18 08:30N 34°15' E 135°06'0 0.0
2018-May-18 08:00N 34°15' E 135°06'0 0.0
2018-May-18 07:30N 34°15' E 135°06'0 0.0
2018-May-18 07:00N 34°15' E 135°06'0 0.0
2018-May-18 06:30N 34°15' E 135°06'0 0.1
2018-May-18 06:01N 34°15' E 135°06'0 0.1
2018-May-18 05:31N 34°15' E 135°06'0 0.0
2018-May-18 05:00N 34°15' E 135°06'0 0.0
2018-May-18 04:30N 34°15' E 135°06'0 0.0
2018-May-18 04:00N 34°15' E 135°06'0 0.1
2018-May-18 03:31N 34°15' E 135°06'0 0.0
2018-May-18 03:00N 34°15' E 135°06'0 0.1
2018-May-18 02:30N 34°15' E 135°06'0 0.0
2018-May-18 02:00N 34°15' E 135°06'0 0.0
2018-May-18 01:30N 34°15' E 135°06'0 0.0
2018-May-18 01:00N 34°15' E 135°06'0 0.0
2018-May-18 00:30N 34°15' E 135°06'0 0.0
2018-May-18 00:00N 34°15' E 135°06'0 0.0
2018-May-17 23:30N 34°15' E 135°06'0 0.0
2018-May-17 23:00N 34°15' E 135°06'0 0.0
2018-May-17 22:30N 34°15' E 135°06'0 0.0
2018-May-17 22:00N 34°15' E 135°06'0 0.0
2018-May-17 21:30N 34°15' E 135°06'0 0.0
2018-May-17 21:00N 34°15' E 135°06'0 0.0
2018-May-17 20:30N 34°15' E 135°06'0 0.1
2018-May-17 20:00N 34°15' E 135°06'0 0.0
2018-May-17 19:30N 34°15' E 135°06'0 0.0
2018-May-17 19:00N 34°15' E 135°06'0 0.0
2018-May-17 18:30N 34°15' E 135°06'0 0.0
2018-May-17 18:01N 34°15' E 135°06'0 0.0
2018-May-17 17:31N 34°15' E 135°06'0 0.0
2018-May-17 17:00N 34°15' E 135°06'0 0.0
2018-May-17 16:30N 34°15' E 135°06'0 0.0
2018-May-17 16:00N 34°15' E 135°06'0 0.0
2018-May-17 15:30N 34°15' E 135°06'0 0.0
2018-May-17 15:00N 34°15' E 135°06'0 0.0
2018-May-17 14:30N 34°15' E 135°06'0 0.0
2018-May-17 14:00N 34°15' E 135°06'0 0.0
2018-May-17 13:30N 34°15' E 135°06'0 0.0
2018-May-17 13:00N 34°15' E 135°06'0 0.0
2018-May-17 12:30N 34°15' E 135°06'1 1.3
2018-May-17 12:00N 34°14' E 135°05'612.0
2018-May-17 11:30N 34°09' E 135°02'612.5
2018-May-17 10:59N 34°03' E 134°59'6 0.3
2018-May-16 11:35N 33°58' E 134°55'211.5
2018-May-16 11:27N 33°59' E 134°56'511.2
2018-May-16 10:58N 34°04' E 134°59'511.2
2018-May-16 10:30N 34°09' E 135°02'510.8
2018-May-16 10:00N 34°13' E 135°05'3 5.5
2018-May-16 09:31N 34°14' E 135°08'0 0.0
2018-May-16 09:01N 34°14' E 135°08'0 0.0
2018-May-16 08:31N 34°14' E 135°08'0 0.0
2018-May-16 08:00N 34°14' E 135°08'0 0.0
2018-May-16 07:30N 34°14' E 135°08'0 0.0
2018-May-16 07:00N 34°14' E 135°08'0 0.0
2018-May-16 06:30N 34°14' E 135°08'0 0.0
2018-May-16 06:00N 34°14' E 135°08'0 0.0
2018-May-16 05:30N 34°14' E 135°08'0 0.0
2018-May-16 05:00N 34°14' E 135°08'0 0.0
2018-May-16 04:30N 34°14' E 135°08'0 0.0
2018-May-16 04:00N 34°14' E 135°08'0 0.0
2018-May-16 03:30N 34°14' E 135°08'0 0.0
2018-May-16 03:00N 34°14' E 135°08'0 0.0
2018-May-16 02:30N 34°14' E 135°08'0 0.0
2018-May-16 02:00N 34°14' E 135°08'0 0.0
2018-May-16 01:30N 34°14' E 135°08'0 0.0
2018-May-16 01:00N 34°14' E 135°08'0 0.0
2018-May-16 00:30N 34°14' E 135°08'0 0.0
2018-May-16 00:00N 34°14' E 135°08'2 4.3
2018-May-15 23:30N 34°14' E 135°05'611.7
2018-May-15 23:00N 34°09' E 135°02'711.8
2018-May-15 22:23N 34°02' E 134°58'  

Dump ship's entire track history